sensor_id;sensor_type;location;lat;lon;timestamp;P1;durP1;ratioP1;P2;durP2;ratioP2
22429;SDS011;11382;48.086;11.632;2022-12-29T00:01:07;2.72;;;1.30;;
22429;SDS011;11382;48.086;11.632;2022-12-29T00:03:35;1.40;;;0.93;;
22429;SDS011;11382;48.086;11.632;2022-12-29T00:06:05;1.63;;;1.02;;
22429;SDS011;11382;48.086;11.632;2022-12-29T00:08:36;1.52;;;1.00;;
22429;SDS011;11382;48.086;11.632;2022-12-29T00:11:08;3.80;;;1.10;;
22429;SDS011;11382;48.086;11.632;2022-12-29T00:13:37;2.20;;;1.05;;
22429;SDS011;11382;48.086;11.632;2022-12-29T00:16:23;2.00;;;1.02;;
22429;SDS011;11382;48.086;11.632;2022-12-29T00:18:52;1.88;;;1.20;;
22429;SDS011;11382;48.086;11.632;2022-12-29T00:21:21;2.38;;;1.30;;
22429;SDS011;11382;48.086;11.632;2022-12-29T00:24:14;3.63;;;1.25;;
22429;SDS011;11382;48.086;11.632;2022-12-29T00:27:09;1.80;;;1.10;;
22429;SDS011;11382;48.086;11.632;2022-12-29T00:29:57;1.00;;;0.90;;
22429;SDS011;11382;48.086;11.632;2022-12-29T00:32:43;1.20;;;0.90;;
22429;SDS011;11382;48.086;11.632;2022-12-29T00:35:29;2.70;;;1.10;;
22429;SDS011;11382;48.086;11.632;2022-12-29T00:38:02;3.15;;;0.90;;
22429;SDS011;11382;48.086;11.632;2022-12-29T00:40:51;1.42;;;0.80;;
22429;SDS011;11382;48.086;11.632;2022-12-29T00:43:40;1.85;;;0.82;;
22429;SDS011;11382;48.086;11.632;2022-12-29T00:46:26;1.42;;;0.70;;
22429;SDS011;11382;48.086;11.632;2022-12-29T00:48:54;1.35;;;0.90;;
22429;SDS011;11382;48.086;11.632;2022-12-29T00:51:40;0.70;;;0.60;;
22429;SDS011;11382;48.086;11.632;2022-12-29T00:54:08;2.05;;;1.00;;
22429;SDS011;11382;48.086;11.632;2022-12-29T00:56:38;1.00;;;0.70;;
22429;SDS011;11382;48.086;11.632;2022-12-29T00:59:06;1.65;;;1.00;;
22429;SDS011;11382;48.086;11.632;2022-12-29T01:01:36;1.02;;;0.73;;
22429;SDS011;11382;48.086;11.632;2022-12-29T01:04:05;1.10;;;0.80;;
22429;SDS011;11382;48.086;11.632;2022-12-29T01:06:35;0.85;;;0.75;;
22429;SDS011;11382;48.086;11.632;2022-12-29T01:09:04;0.90;;;0.70;;
22429;SDS011;11382;48.086;11.632;2022-12-29T01:11:52;1.65;;;1.00;;
22429;SDS011;11382;48.086;11.632;2022-12-29T01:14:21;1.38;;;0.68;;
22429;SDS011;11382;48.086;11.632;2022-12-29T01:16:50;1.27;;;0.90;;
22429;SDS011;11382;48.086;11.632;2022-12-29T01:19:19;1.25;;;0.90;;
22429;SDS011;11382;48.086;11.632;2022-12-29T01:21:47;1.90;;;1.10;;
22429;SDS011;11382;48.086;11.632;2022-12-29T01:24:16;1.60;;;1.17;;
22429;SDS011;11382;48.086;11.632;2022-12-29T01:26:46;1.05;;;0.80;;
22429;SDS011;11382;48.086;11.632;2022-12-29T01:29:17;1.55;;;0.90;;
22429;SDS011;11382;48.086;11.632;2022-12-29T01:31:45;1.80;;;0.75;;
22429;SDS011;11382;48.086;11.632;2022-12-29T01:34:13;0.75;;;0.60;;
22429;SDS011;11382;48.086;11.632;2022-12-29T01:36:41;0.60;;;0.50;;
22429;SDS011;11382;48.086;11.632;2022-12-29T01:39:10;1.08;;;0.85;;
22429;SDS011;11382;48.086;11.632;2022-12-29T01:41:39;1.10;;;0.80;;
22429;SDS011;11382;48.086;11.632;2022-12-29T01:47:33;0.70;;;0.70;;
22429;SDS011;11382;48.086;11.632;2022-12-29T01:50:06;1.25;;;0.70;;
22429;SDS011;11382;48.086;11.632;2022-12-29T01:52:38;1.38;;;0.85;;
22429;SDS011;11382;48.086;11.632;2022-12-29T01:55:09;2.83;;;0.75;;
22429;SDS011;11382;48.086;11.632;2022-12-29T01:57:40;1.48;;;0.80;;
22429;SDS011;11382;48.086;11.632;2022-12-29T02:00:15;1.23;;;0.70;;
22429;SDS011;11382;48.086;11.632;2022-12-29T02:02:47;1.27;;;0.75;;
22429;SDS011;11382;48.086;11.632;2022-12-29T02:05:20;0.85;;;0.70;;
22429;SDS011;11382;48.086;11.632;2022-12-29T02:07:55;1.17;;;0.73;;
22429;SDS011;11382;48.086;11.632;2022-12-29T02:10:24;1.13;;;0.80;;
22429;SDS011;11382;48.086;11.632;2022-12-29T02:12:55;1.20;;;0.52;;
22429;SDS011;11382;48.086;11.632;2022-12-29T02:15:25;1.35;;;0.65;;
22429;SDS011;11382;48.086;11.632;2022-12-29T02:18:06;1.60;;;0.80;;
22429;SDS011;11382;48.086;11.632;2022-12-29T02:20:51;1.00;;;0.90;;
22429;SDS011;11382;48.086;11.632;2022-12-29T02:23:59;1.38;;;0.60;;
22429;SDS011;11382;48.086;11.632;2022-12-29T02:27:01;1.25;;;0.70;;
22429;SDS011;11382;48.086;11.632;2022-12-29T02:32:44;1.92;;;0.80;;
22429;SDS011;11382;48.086;11.632;2022-12-29T02:35:23;1.05;;;0.82;;
22429;SDS011;11382;48.086;11.632;2022-12-29T02:38:03;1.27;;;0.63;;
22429;SDS011;11382;48.086;11.632;2022-12-29T02:40:40;0.90;;;0.80;;
22429;SDS011;11382;48.086;11.632;2022-12-29T02:43:14;1.00;;;0.65;;
22429;SDS011;11382;48.086;11.632;2022-12-29T02:45:52;1.55;;;0.52;;
22429;SDS011;11382;48.086;11.632;2022-12-29T02:48:25;1.00;;;0.70;;
22429;SDS011;11382;48.086;11.632;2022-12-29T02:50:59;0.77;;;0.63;;
22429;SDS011;11382;48.086;11.632;2022-12-29T02:53:29;2.35;;;0.70;;
22429;SDS011;11382;48.086;11.632;2022-12-29T02:56:29;0.40;;;0.40;;
22429;SDS011;11382;48.086;11.632;2022-12-29T02:58:58;0.60;;;0.60;;
22429;SDS011;11382;48.086;11.632;2022-12-29T03:01:29;0.68;;;0.60;;
22429;SDS011;11382;48.086;11.632;2022-12-29T03:04:12;0.80;;;0.50;;
22429;SDS011;11382;48.086;11.632;2022-12-29T03:06:51;0.60;;;0.40;;
22429;SDS011;11382;48.086;11.632;2022-12-29T03:09:28;1.42;;;0.80;;
22429;SDS011;11382;48.086;11.632;2022-12-29T03:12:07;0.70;;;0.70;;
22429;SDS011;11382;48.086;11.632;2022-12-29T03:14:46;1.08;;;0.70;;
22429;SDS011;11382;48.086;11.632;2022-12-29T03:17:39;0.80;;;0.60;;
22429;SDS011;11382;48.086;11.632;2022-12-29T03:20:17;0.88;;;0.55;;
22429;SDS011;11382;48.086;11.632;2022-12-29T03:22:51;0.60;;;0.60;;
22429;SDS011;11382;48.086;11.632;2022-12-29T03:25:28;0.70;;;0.50;;
22429;SDS011;11382;48.086;11.632;2022-12-29T03:28:01;1.27;;;0.73;;
22429;SDS011;11382;48.086;11.632;2022-12-29T03:30:39;0.95;;;0.63;;
22429;SDS011;11382;48.086;11.632;2022-12-29T03:33:13;0.65;;;0.60;;
22429;SDS011;11382;48.086;11.632;2022-12-29T03:35:48;0.80;;;0.40;;
22429;SDS011;11382;48.086;11.632;2022-12-29T03:38:21;1.23;;;0.70;;
22429;SDS011;11382;48.086;11.632;2022-12-29T03:40:55;0.88;;;0.60;;
22429;SDS011;11382;48.086;11.632;2022-12-29T03:43:28;0.82;;;0.60;;
22429;SDS011;11382;48.086;11.632;2022-12-29T03:45:58;1.27;;;0.60;;
22429;SDS011;11382;48.086;11.632;2022-12-29T03:48:29;0.55;;;0.50;;
22429;SDS011;11382;48.086;11.632;2022-12-29T03:51:02;0.93;;;0.60;;
22429;SDS011;11382;48.086;11.632;2022-12-29T03:53:31;0.50;;;0.50;;
22429;SDS011;11382;48.086;11.632;2022-12-29T03:56:00;0.57;;;0.57;;
22429;SDS011;11382;48.086;11.632;2022-12-29T03:58:32;0.77;;;0.75;;
22429;SDS011;11382;48.086;11.632;2022-12-29T04:01:08;0.50;;;0.50;;
22429;SDS011;11382;48.086;11.632;2022-12-29T04:03:38;0.98;;;0.60;;
22429;SDS011;11382;48.086;11.632;2022-12-29T04:06:07;0.60;;;0.50;;
22429;SDS011;11382;48.086;11.632;2022-12-29T04:08:50;1.35;;;0.77;;
22429;SDS011;11382;48.086;11.632;2022-12-29T04:11:19;0.80;;;0.60;;
22429;SDS011;11382;48.086;11.632;2022-12-29T04:13:49;1.05;;;0.70;;
22429;SDS011;11382;48.086;11.632;2022-12-29T04:16:22;0.63;;;0.60;;
22429;SDS011;11382;48.086;11.632;2022-12-29T04:18:52;1.13;;;0.60;;
22429;SDS011;11382;48.086;11.632;2022-12-29T04:21:22;1.27;;;0.63;;
22429;SDS011;11382;48.086;11.632;2022-12-29T04:23:53;1.38;;;0.68;;
22429;SDS011;11382;48.086;11.632;2022-12-29T04:26:21;1.02;;;0.70;;
22429;SDS011;11382;48.086;11.632;2022-12-29T04:28:59;1.00;;;0.80;;
22429;SDS011;11382;48.086;11.632;2022-12-29T04:31:38;0.70;;;0.50;;
22429;SDS011;11382;48.086;11.632;2022-12-29T04:34:07;1.30;;;0.68;;
22429;SDS011;11382;48.086;11.632;2022-12-29T04:36:39;0.55;;;0.50;;
22429;SDS011;11382;48.086;11.632;2022-12-29T04:39:07;2.08;;;0.65;;
22429;SDS011;11382;48.086;11.632;2022-12-29T04:41:38;0.60;;;0.50;;
22429;SDS011;11382;48.086;11.632;2022-12-29T04:44:09;0.75;;;0.60;;
22429;SDS011;11382;48.086;11.632;2022-12-29T04:46:53;0.70;;;0.60;;
22429;SDS011;11382;48.086;11.632;2022-12-29T04:49:39;3.08;;;0.75;;
22429;SDS011;11382;48.086;11.632;2022-12-29T04:52:28;0.90;;;0.60;;
22429;SDS011;11382;48.086;11.632;2022-12-29T04:54:56;1.20;;;0.65;;
22429;SDS011;11382;48.086;11.632;2022-12-29T04:57:24;0.85;;;0.60;;
22429;SDS011;11382;48.086;11.632;2022-12-29T04:59:55;1.05;;;0.60;;
22429;SDS011;11382;48.086;11.632;2022-12-29T05:02:23;2.75;;;0.68;;
22429;SDS011;11382;48.086;11.632;2022-12-29T05:04:54;1.05;;;0.70;;
22429;SDS011;11382;48.086;11.632;2022-12-29T05:07:23;1.00;;;0.70;;
22429;SDS011;11382;48.086;11.632;2022-12-29T05:09:54;1.23;;;0.57;;
22429;SDS011;11382;48.086;11.632;2022-12-29T05:12:22;0.70;;;0.60;;
22429;SDS011;11382;48.086;11.632;2022-12-29T05:14:56;1.52;;;0.50;;
22429;SDS011;11382;48.086;11.632;2022-12-29T05:17:24;1.08;;;0.70;;
22429;SDS011;11382;48.086;11.632;2022-12-29T05:19:53;0.85;;;0.60;;
22429;SDS011;11382;48.086;11.632;2022-12-29T05:22:21;1.80;;;0.70;;
22429;SDS011;11382;48.086;11.632;2022-12-29T05:24:51;1.50;;;0.88;;
22429;SDS011;11382;48.086;11.632;2022-12-29T05:27:21;1.20;;;0.73;;
22429;SDS011;11382;48.086;11.632;2022-12-29T05:29:58;1.27;;;0.80;;
22429;SDS011;11382;48.086;11.632;2022-12-29T05:32:27;0.68;;;0.52;;
22429;SDS011;11382;48.086;11.632;2022-12-29T05:34:56;0.88;;;0.60;;
22429;SDS011;11382;48.086;11.632;2022-12-29T05:37:24;1.58;;;0.80;;
22429;SDS011;11382;48.086;11.632;2022-12-29T05:39:52;1.83;;;0.80;;
22429;SDS011;11382;48.086;11.632;2022-12-29T05:42:23;2.60;;;0.88;;
22429;SDS011;11382;48.086;11.632;2022-12-29T05:44:57;1.00;;;0.70;;
22429;SDS011;11382;48.086;11.632;2022-12-29T05:47:44;0.63;;;0.60;;
22429;SDS011;11382;48.086;11.632;2022-12-29T05:50:31;0.80;;;0.77;;
22429;SDS011;11382;48.086;11.632;2022-12-29T05:53:10;1.40;;;0.70;;
22429;SDS011;11382;48.086;11.632;2022-12-29T05:55:38;0.93;;;0.70;;
22429;SDS011;11382;48.086;11.632;2022-12-29T05:58:15;0.50;;;0.50;;
22429;SDS011;11382;48.086;11.632;2022-12-29T06:00:44;1.15;;;0.60;;
22429;SDS011;11382;48.086;11.632;2022-12-29T06:03:13;0.65;;;0.50;;
22429;SDS011;11382;48.086;11.632;2022-12-29T06:05:44;2.65;;;0.60;;
22429;SDS011;11382;48.086;11.632;2022-12-29T06:08:14;0.75;;;0.60;;
22429;SDS011;11382;48.086;11.632;2022-12-29T06:10:43;0.75;;;0.65;;
22429;SDS011;11382;48.086;11.632;2022-12-29T06:13:12;3.08;;;0.90;;
22429;SDS011;11382;48.086;11.632;2022-12-29T06:15:44;4.57;;;0.75;;
22429;SDS011;11382;48.086;11.632;2022-12-29T06:18:12;2.53;;;0.82;;
22429;SDS011;11382;48.086;11.632;2022-12-29T06:20:46;0.85;;;0.70;;
22429;SDS011;11382;48.086;11.632;2022-12-29T06:23:17;0.80;;;0.63;;
22429;SDS011;11382;48.086;11.632;2022-12-29T06:25:46;1.42;;;0.93;;
22429;SDS011;11382;48.086;11.632;2022-12-29T06:28:15;1.42;;;0.85;;
22429;SDS011;11382;48.086;11.632;2022-12-29T06:30:46;1.65;;;0.60;;
22429;SDS011;11382;48.086;11.632;2022-12-29T06:33:16;1.15;;;0.82;;
22429;SDS011;11382;48.086;11.632;2022-12-29T06:35:44;1.75;;;0.68;;
22429;SDS011;11382;48.086;11.632;2022-12-29T06:38:13;1.58;;;0.80;;
22429;SDS011;11382;48.086;11.632;2022-12-29T06:40:42;1.77;;;0.90;;
22429;SDS011;11382;48.086;11.632;2022-12-29T06:43:23;2.17;;;1.08;;
22429;SDS011;11382;48.086;11.632;2022-12-29T06:46:01;1.48;;;0.95;;
22429;SDS011;11382;48.086;11.632;2022-12-29T06:48:29;2.35;;;1.05;;
22429;SDS011;11382;48.086;11.632;2022-12-29T06:50:57;1.42;;;0.95;;
22429;SDS011;11382;48.086;11.632;2022-12-29T06:53:26;1.63;;;0.98;;
22429;SDS011;11382;48.086;11.632;2022-12-29T06:55:54;3.28;;;0.68;;
22429;SDS011;11382;48.086;11.632;2022-12-29T06:58:22;1.25;;;0.88;;
22429;SDS011;11382;48.086;11.632;2022-12-29T07:00:51;1.27;;;0.82;;
22429;SDS011;11382;48.086;11.632;2022-12-29T07:03:20;1.33;;;1.00;;
22429;SDS011;11382;48.086;11.632;2022-12-29T07:05:48;1.00;;;0.90;;
22429;SDS011;11382;48.086;11.632;2022-12-29T07:08:16;2.00;;;1.10;;
22429;SDS011;11382;48.086;11.632;2022-12-29T07:10:45;2.22;;;1.30;;
22429;SDS011;11382;48.086;11.632;2022-12-29T07:13:13;0.90;;;0.73;;
22429;SDS011;11382;48.086;11.632;2022-12-29T07:15:41;2.58;;;0.90;;
22429;SDS011;11382;48.086;11.632;2022-12-29T07:18:09;1.27;;;0.90;;
22429;SDS011;11382;48.086;11.632;2022-12-29T07:20:38;1.10;;;0.80;;
22429;SDS011;11382;48.086;11.632;2022-12-29T07:23:06;1.02;;;0.90;;
22429;SDS011;11382;48.086;11.632;2022-12-29T07:25:36;1.17;;;0.98;;
22429;SDS011;11382;48.086;11.632;2022-12-29T07:28:04;1.42;;;0.85;;
22429;SDS011;11382;48.086;11.632;2022-12-29T07:30:33;2.53;;;1.10;;
22429;SDS011;11382;48.086;11.632;2022-12-29T07:33:03;0.93;;;0.70;;
22429;SDS011;11382;48.086;11.632;2022-12-29T07:35:32;1.35;;;0.82;;
22429;SDS011;11382;48.086;11.632;2022-12-29T07:38:02;1.35;;;0.85;;
22429;SDS011;11382;48.086;11.632;2022-12-29T07:40:30;1.40;;;0.93;;
22429;SDS011;11382;48.086;11.632;2022-12-29T07:42:58;2.00;;;1.17;;
22429;SDS011;11382;48.086;11.632;2022-12-29T07:45:34;1.73;;;1.08;;
22429;SDS011;11382;48.086;11.632;2022-12-29T07:48:07;1.80;;;1.10;;
22429;SDS011;11382;48.086;11.632;2022-12-29T07:50:58;1.05;;;0.93;;
22429;SDS011;11382;48.086;11.632;2022-12-29T07:53:27;1.42;;;1.05;;
22429;SDS011;11382;48.086;11.632;2022-12-29T07:55:55;1.50;;;0.80;;
22429;SDS011;11382;48.086;11.632;2022-12-29T07:58:23;3.88;;;1.20;;
22429;SDS011;11382;48.086;11.632;2022-12-29T08:00:52;2.08;;;1.40;;
22429;SDS011;11382;48.086;11.632;2022-12-29T08:03:21;2.28;;;1.25;;
22429;SDS011;11382;48.086;11.632;2022-12-29T08:05:49;2.45;;;1.00;;
22429;SDS011;11382;48.086;11.632;2022-12-29T08:08:17;3.70;;;1.30;;
22429;SDS011;11382;48.086;11.632;2022-12-29T08:10:47;4.05;;;1.52;;
22429;SDS011;11382;48.086;11.632;2022-12-29T08:13:17;1.08;;;0.98;;
22429;SDS011;11382;48.086;11.632;2022-12-29T08:15:45;1.13;;;0.85;;
22429;SDS011;11382;48.086;11.632;2022-12-29T08:18:13;2.00;;;1.20;;
22429;SDS011;11382;48.086;11.632;2022-12-29T08:20:41;2.38;;;1.13;;
22429;SDS011;11382;48.086;11.632;2022-12-29T08:23:09;1.52;;;1.30;;
22429;SDS011;11382;48.086;11.632;2022-12-29T08:25:38;5.05;;;1.40;;
22429;SDS011;11382;48.086;11.632;2022-12-29T08:28:08;1.67;;;1.20;;
22429;SDS011;11382;48.086;11.632;2022-12-29T08:30:36;1.63;;;1.17;;
22429;SDS011;11382;48.086;11.632;2022-12-29T08:33:04;1.48;;;1.13;;
22429;SDS011;11382;48.086;11.632;2022-12-29T08:35:32;1.98;;;1.35;;
22429;SDS011;11382;48.086;11.632;2022-12-29T08:38:05;1.52;;;1.02;;
22429;SDS011;11382;48.086;11.632;2022-12-29T08:40:33;1.98;;;1.20;;
22429;SDS011;11382;48.086;11.632;2022-12-29T08:43:01;1.60;;;1.00;;
22429;SDS011;11382;48.086;11.632;2022-12-29T08:45:30;2.33;;;0.88;;
22429;SDS011;11382;48.086;11.632;2022-12-29T08:47:59;1.75;;;1.10;;
22429;SDS011;11382;48.086;11.632;2022-12-29T08:50:27;1.08;;;1.00;;
22429;SDS011;11382;48.086;11.632;2022-12-29T08:52:55;2.25;;;1.30;;
22429;SDS011;11382;48.086;11.632;2022-12-29T08:55:23;1.20;;;1.00;;
22429;SDS011;11382;48.086;11.632;2022-12-29T08:57:52;2.08;;;1.23;;
22429;SDS011;11382;48.086;11.632;2022-12-29T09:00:22;1.92;;;1.30;;
22429;SDS011;11382;48.086;11.632;2022-12-29T09:02:54;2.13;;;1.02;;
22429;SDS011;11382;48.086;11.632;2022-12-29T09:05:24;1.27;;;1.02;;
22429;SDS011;11382;48.086;11.632;2022-12-29T09:07:52;2.42;;;1.20;;
22429;SDS011;11382;48.086;11.632;2022-12-29T09:10:20;2.25;;;1.35;;
22429;SDS011;11382;48.086;11.632;2022-12-29T09:12:48;1.75;;;1.20;;
22429;SDS011;11382;48.086;11.632;2022-12-29T09:15:16;1.15;;;1.02;;
22429;SDS011;11382;48.086;11.632;2022-12-29T09:17:44;2.20;;;1.10;;
22429;SDS011;11382;48.086;11.632;2022-12-29T09:20:14;1.70;;;1.13;;
22429;SDS011;11382;48.086;11.632;2022-12-29T09:22:44;1.58;;;1.00;;
22429;SDS011;11382;48.086;11.632;2022-12-29T09:25:13;1.00;;;0.90;;
22429;SDS011;11382;48.086;11.632;2022-12-29T09:27:41;1.02;;;0.90;;
22429;SDS011;11382;48.086;11.632;2022-12-29T09:30:10;1.85;;;1.02;;
22429;SDS011;11382;48.086;11.632;2022-12-29T09:32:40;1.83;;;1.10;;
22429;SDS011;11382;48.086;11.632;2022-12-29T09:35:11;1.10;;;1.00;;
22429;SDS011;11382;48.086;11.632;2022-12-29T09:37:41;2.38;;;1.08;;
22429;SDS011;11382;48.086;11.632;2022-12-29T09:40:16;2.40;;;1.30;;
22429;SDS011;11382;48.086;11.632;2022-12-29T09:45:52;1.80;;;0.90;;
22429;SDS011;11382;48.086;11.632;2022-12-29T09:48:27;2.33;;;1.10;;
22429;SDS011;11382;48.086;11.632;2022-12-29T09:51:02;1.42;;;0.98;;
22429;SDS011;11382;48.086;11.632;2022-12-29T09:53:36;1.33;;;0.90;;
22429;SDS011;11382;48.086;11.632;2022-12-29T09:56:10;1.92;;;1.10;;
22429;SDS011;11382;48.086;11.632;2022-12-29T09:58:48;1.33;;;0.77;;
22429;SDS011;11382;48.086;11.632;2022-12-29T10:01:23;1.95;;;0.90;;
22429;SDS011;11382;48.086;11.632;2022-12-29T10:03:58;1.52;;;0.90;;
22429;SDS011;11382;48.086;11.632;2022-12-29T10:06:36;1.45;;;0.77;;
22429;SDS011;11382;48.086;11.632;2022-12-29T10:09:30;3.45;;;1.10;;
22429;SDS011;11382;48.086;11.632;2022-12-29T10:12:08;1.50;;;1.08;;
22429;SDS011;11382;48.086;11.632;2022-12-29T10:14:47;1.52;;;1.10;;
22429;SDS011;11382;48.086;11.632;2022-12-29T10:17:27;1.10;;;0.85;;
22429;SDS011;11382;48.086;11.632;2022-12-29T10:20:18;1.67;;;1.20;;
22429;SDS011;11382;48.086;11.632;2022-12-29T10:23:09;1.77;;;1.13;;
22429;SDS011;11382;48.086;11.632;2022-12-29T10:25:49;1.33;;;1.00;;
22429;SDS011;11382;48.086;11.632;2022-12-29T10:28:21;5.53;;;1.00;;
22429;SDS011;11382;48.086;11.632;2022-12-29T10:30:50;2.35;;;0.82;;
22429;SDS011;11382;48.086;11.632;2022-12-29T10:33:21;1.73;;;1.00;;
22429;SDS011;11382;48.086;11.632;2022-12-29T10:35:51;1.58;;;0.95;;
22429;SDS011;11382;48.086;11.632;2022-12-29T10:38:22;2.47;;;0.90;;
22429;SDS011;11382;48.086;11.632;2022-12-29T10:40:54;1.55;;;1.10;;
22429;SDS011;11382;48.086;11.632;2022-12-29T10:43:28;1.65;;;1.13;;
22429;SDS011;11382;48.086;11.632;2022-12-29T10:45:59;2.10;;;0.98;;
22429;SDS011;11382;48.086;11.632;2022-12-29T10:48:33;1.95;;;1.05;;
22429;SDS011;11382;48.086;11.632;2022-12-29T10:51:02;1.15;;;0.80;;
22429;SDS011;11382;48.086;11.632;2022-12-29T10:53:35;1.58;;;0.90;;
22429;SDS011;11382;48.086;11.632;2022-12-29T10:56:10;1.58;;;0.88;;
22429;SDS011;11382;48.086;11.632;2022-12-29T10:58:48;1.23;;;0.98;;
22429;SDS011;11382;48.086;11.632;2022-12-29T11:01:17;2.60;;;1.00;;
22429;SDS011;11382;48.086;11.632;2022-12-29T11:03:48;2.17;;;1.15;;
22429;SDS011;11382;48.086;11.632;2022-12-29T11:06:27;1.73;;;0.85;;
22429;SDS011;11382;48.086;11.632;2022-12-29T11:08:58;1.58;;;0.80;;
22429;SDS011;11382;48.086;11.632;2022-12-29T11:11:32;1.25;;;0.90;;
22429;SDS011;11382;48.086;11.632;2022-12-29T11:14:07;1.10;;;0.80;;
22429;SDS011;11382;48.086;11.632;2022-12-29T11:16:40;0.95;;;0.68;;
22429;SDS011;11382;48.086;11.632;2022-12-29T11:19:20;1.02;;;0.65;;
22429;SDS011;11382;48.086;11.632;2022-12-29T11:21:49;1.90;;;0.70;;
22429;SDS011;11382;48.086;11.632;2022-12-29T11:24:21;2.00;;;0.73;;
22429;SDS011;11382;48.086;11.632;2022-12-29T11:26:51;1.85;;;0.85;;
22429;SDS011;11382;48.086;11.632;2022-12-29T11:29:24;2.13;;;0.90;;
22429;SDS011;11382;48.086;11.632;2022-12-29T11:31:55;2.08;;;1.00;;
22429;SDS011;11382;48.086;11.632;2022-12-29T11:34:26;1.15;;;0.68;;
22429;SDS011;11382;48.086;11.632;2022-12-29T11:37:02;1.00;;;0.70;;
22429;SDS011;11382;48.086;11.632;2022-12-29T11:39:36;0.95;;;0.70;;
22429;SDS011;11382;48.086;11.632;2022-12-29T11:42:12;2.63;;;0.80;;
22429;SDS011;11382;48.086;11.632;2022-12-29T11:44:45;1.35;;;0.90;;
22429;SDS011;11382;48.086;11.632;2022-12-29T11:47:20;1.20;;;0.80;;
22429;SDS011;11382;48.086;11.632;2022-12-29T11:49:53;1.85;;;0.80;;
22429;SDS011;11382;48.086;11.632;2022-12-29T11:52:26;0.95;;;0.70;;
22429;SDS011;11382;48.086;11.632;2022-12-29T11:54:58;2.00;;;0.93;;
22429;SDS011;11382;48.086;11.632;2022-12-29T11:57:30;1.77;;;0.90;;
22429;SDS011;11382;48.086;11.632;2022-12-29T12:00:02;0.80;;;0.80;;
22429;SDS011;11382;48.086;11.632;2022-12-29T12:02:42;1.63;;;0.90;;
22429;SDS011;11382;48.086;11.632;2022-12-29T12:05:21;0.80;;;0.70;;
22429;SDS011;11382;48.086;11.632;2022-12-29T12:07:55;1.13;;;0.70;;
22429;SDS011;11382;48.086;11.632;2022-12-29T12:10:31;0.70;;;0.60;;
22429;SDS011;11382;48.086;11.632;2022-12-29T12:13:07;2.47;;;0.70;;
22429;SDS011;11382;48.086;11.632;2022-12-29T12:15:42;1.30;;;0.90;;
22429;SDS011;11382;48.086;11.632;2022-12-29T12:18:25;1.58;;;0.80;;
22429;SDS011;11382;48.086;11.632;2022-12-29T12:21:05;2.25;;;0.80;;
22429;SDS011;11382;48.086;11.632;2022-12-29T12:23:43;1.30;;;1.13;;
22429;SDS011;11382;48.086;11.632;2022-12-29T12:26:30;0.52;;;0.52;;
22429;SDS011;11382;48.086;11.632;2022-12-29T12:29:04;1.08;;;0.90;;
22429;SDS011;11382;48.086;11.632;2022-12-29T12:31:41;1.05;;;0.85;;
22429;SDS011;11382;48.086;11.632;2022-12-29T12:34:16;0.82;;;0.80;;
22429;SDS011;11382;48.086;11.632;2022-12-29T12:37:06;1.35;;;0.80;;
22429;SDS011;11382;48.086;11.632;2022-12-29T12:40:01;2.40;;;1.00;;
22429;SDS011;11382;48.086;11.632;2022-12-29T12:42:42;2.97;;;1.05;;
22429;SDS011;11382;48.086;11.632;2022-12-29T12:48:14;0.82;;;0.82;;
22429;SDS011;11382;48.086;11.632;2022-12-29T12:50:57;1.00;;;0.80;;
22429;SDS011;11382;48.086;11.632;2022-12-29T12:53:39;1.05;;;0.90;;
22429;SDS011;11382;48.086;11.632;2022-12-29T12:56:37;1.05;;;0.93;;
22429;SDS011;11382;48.086;11.632;2022-12-29T12:59:32;1.55;;;1.00;;
22429;SDS011;11382;48.086;11.632;2022-12-29T13:02:10;1.77;;;0.90;;
22429;SDS011;11382;48.086;11.632;2022-12-29T13:08:03;0.77;;;0.70;;
22429;SDS011;11382;48.086;11.632;2022-12-29T13:10:50;1.67;;;0.98;;
22429;SDS011;11382;48.086;11.632;2022-12-29T13:13:29;1.17;;;0.80;;
22429;SDS011;11382;48.086;11.632;2022-12-29T13:16:15;1.33;;;0.85;;
22429;SDS011;11382;48.086;11.632;2022-12-29T13:18:56;1.33;;;1.05;;
22429;SDS011;11382;48.086;11.632;2022-12-29T13:21:34;1.63;;;0.90;;
22429;SDS011;11382;48.086;11.632;2022-12-29T13:24:25;2.20;;;1.10;;
22429;SDS011;11382;48.086;11.632;2022-12-29T13:26:58;2.33;;;1.02;;
22429;SDS011;11382;48.086;11.632;2022-12-29T13:29:32;3.22;;;1.00;;
22429;SDS011;11382;48.086;11.632;2022-12-29T13:32:12;1.65;;;1.23;;
22429;SDS011;11382;48.086;11.632;2022-12-29T13:34:52;2.22;;;0.70;;
22429;SDS011;11382;48.086;11.632;2022-12-29T13:37:29;1.10;;;1.00;;
22429;SDS011;11382;48.086;11.632;2022-12-29T13:40:02;1.77;;;0.98;;
22429;SDS011;11382;48.086;11.632;2022-12-29T13:42:39;1.50;;;1.00;;
22429;SDS011;11382;48.086;11.632;2022-12-29T13:45:09;3.03;;;1.08;;
22429;SDS011;11382;48.086;11.632;2022-12-29T13:47:42;1.98;;;1.17;;
22429;SDS011;11382;48.086;11.632;2022-12-29T13:50:15;2.33;;;1.08;;
22429;SDS011;11382;48.086;11.632;2022-12-29T13:52:48;2.08;;;1.23;;
22429;SDS011;11382;48.086;11.632;2022-12-29T13:55:24;1.23;;;1.10;;
22429;SDS011;11382;48.086;11.632;2022-12-29T13:57:58;2.10;;;1.30;;
22429;SDS011;11382;48.086;11.632;2022-12-29T14:00:34;2.60;;;1.20;;
22429;SDS011;11382;48.086;11.632;2022-12-29T14:03:41;3.22;;;1.23;;
22429;SDS011;11382;48.086;11.632;2022-12-29T14:06:24;1.90;;;0.88;;
22429;SDS011;11382;48.086;11.632;2022-12-29T14:08:54;1.77;;;1.20;;
22429;SDS011;11382;48.086;11.632;2022-12-29T14:11:28;3.47;;;1.38;;
22429;SDS011;11382;48.086;11.632;2022-12-29T14:14:10;2.67;;;1.77;;
22429;SDS011;11382;48.086;11.632;2022-12-29T14:16:39;1.40;;;1.10;;
22429;SDS011;11382;48.086;11.632;2022-12-29T14:19:13;3.05;;;1.17;;
22429;SDS011;11382;48.086;11.632;2022-12-29T14:21:49;2.83;;;1.27;;
22429;SDS011;11382;48.086;11.632;2022-12-29T14:24:27;1.58;;;1.20;;
22429;SDS011;11382;48.086;11.632;2022-12-29T14:33:14;1.23;;;1.10;;
22429;SDS011;11382;48.086;11.632;2022-12-29T14:35:46;1.90;;;1.33;;
22429;SDS011;11382;48.086;11.632;2022-12-29T14:38:19;3.65;;;1.30;;
22429;SDS011;11382;48.086;11.632;2022-12-29T14:43:57;1.23;;;1.10;;
22429;SDS011;11382;48.086;11.632;2022-12-29T14:49:23;2.22;;;1.30;;
22429;SDS011;11382;48.086;11.632;2022-12-29T14:52:03;3.60;;;1.02;;
22429;SDS011;11382;48.086;11.632;2022-12-29T14:54:45;2.50;;;1.20;;
22429;SDS011;11382;48.086;11.632;2022-12-29T14:57:26;2.45;;;1.30;;
22429;SDS011;11382;48.086;11.632;2022-12-29T14:59:58;2.67;;;1.05;;
22429;SDS011;11382;48.086;11.632;2022-12-29T15:02:34;3.58;;;1.40;;
22429;SDS011;11382;48.086;11.632;2022-12-29T15:05:20;1.75;;;1.00;;
22429;SDS011;11382;48.086;11.632;2022-12-29T15:07:55;4.07;;;1.38;;
22429;SDS011;11382;48.086;11.632;2022-12-29T15:10:25;3.20;;;1.20;;
22429;SDS011;11382;48.086;11.632;2022-12-29T15:13:02;1.92;;;1.10;;
22429;SDS011;11382;48.086;11.632;2022-12-29T15:15:36;2.15;;;1.17;;
22429;SDS011;11382;48.086;11.632;2022-12-29T15:20:49;2.15;;;1.40;;
22429;SDS011;11382;48.086;11.632;2022-12-29T15:23:21;2.50;;;1.73;;
22429;SDS011;11382;48.086;11.632;2022-12-29T15:25:50;1.90;;;1.48;;
22429;SDS011;11382;48.086;11.632;2022-12-29T15:28:22;3.85;;;1.60;;
22429;SDS011;11382;48.086;11.632;2022-12-29T15:30:52;3.05;;;1.90;;
22429;SDS011;11382;48.086;11.632;2022-12-29T15:33:22;2.58;;;1.70;;
22429;SDS011;11382;48.086;11.632;2022-12-29T15:35:51;2.15;;;1.50;;
22429;SDS011;11382;48.086;11.632;2022-12-29T15:38:23;5.38;;;1.98;;
22429;SDS011;11382;48.086;11.632;2022-12-29T15:41:04;3.30;;;1.52;;
22429;SDS011;11382;48.086;11.632;2022-12-29T15:43:40;1.63;;;1.30;;